Time;durP1;ratioP1;P1;durP2;ratioP2;P2;SDS_P1;SDS_P2;PMS_P1;PMS_P2;Temp;Humidity;BMP_temperature;BMP_pressure;BME280_temperature;BME280_humidity;BME280_pressure;Samples;Min_cycle;Max_cycle;Signal;HPM_P1;HPM_P2
2023/12/20 00:01:36;;;;;;;86.57;48.03;;;;;;;;;;5055473;28;20198;-70
2023/12/20 00:04:03;;;;;;;68.93;35.93;;;;;;;;;;5055971;28;20200;-70
2023/12/20 00:06:29;;;;;;;56.90;27.77;;;;;;;;;;5038508;28;20649;-71
2023/12/20 00:08:57;;;;;;;62.50;32.63;;;;;;;;;;5056180;28;20593;-70
2023/12/20 00:11:24;;;;;;;59.93;30.60;;;;;;;;;;5055790;28;20576;-70
2023/12/20 00:13:50;;;;;;;52.37;22.43;;;;;;;;;;5055989;28;20249;-70
2023/12/20 00:16:16;;;;;;;52.10;24.47;;;;;;;;;;5056325;28;20183;-71
2023/12/20 00:18:42;;;;;;;50.00;26.20;;;;;;;;;;5055811;28;20217;-71
2023/12/20 00:21:08;;;;;;;69.20;37.77;;;;;;;;;;5055808;28;20202;-70
2023/12/20 00:23:37;;;;;;;40.73;18.30;;;;;;;;;;5055773;28;20233;-73
2023/12/20 00:26:05;;;;;;;48.73;20.57;;;;;;;;;;5055951;28;20186;-72
2023/12/20 00:28:31;;;;;;;62.90;34.63;;;;;;;;;;5055962;28;20265;-69
2023/12/20 00:30:57;;;;;;;50.07;24.10;;;;;;;;;;5055640;28;20248;-71
2023/12/20 00:33:23;;;;;;;64.27;32.03;;;;;;;;;;5037684;28;20261;-71
2023/12/20 00:35:49;;;;;;;83.30;40.43;;;;;;;;;;5055560;28;20171;-72
2023/12/20 00:38:15;;;;;;;72.90;39.47;;;;;;;;;;5055606;28;20236;-72
2023/12/20 00:40:41;;;;;;;76.40;36.10;;;;;;;;;;5037592;28;20695;-71
2023/12/20 00:43:07;;;;;;;54.07;26.00;;;;;;;;;;5056162;28;20542;-72
2023/12/20 00:45:32;;;;;;;80.77;40.87;;;;;;;;;;5055440;28;20182;-71
2023/12/20 00:47:59;;;;;;;57.57;27.17;;;;;;;;;;5055619;28;20214;-71
2023/12/20 00:50:25;;;;;;;52.50;25.63;;;;;;;;;;5055281;28;20658;-71
2023/12/20 00:52:51;;;;;;;46.67;22.07;;;;;;;;;;5055778;28;20182;-70
2023/12/20 00:55:17;;;;;;;62.60;26.77;;;;;;;;;;5055631;28;20194;-70
2023/12/20 00:57:43;;;;;;;76.07;39.23;;;;;;;;;;5055397;28;20615;-70
2023/12/20 01:00:13;;;;;;;54.93;26.53;;;;;;;;;;5055697;28;20231;-73
2023/12/20 01:02:39;;;;;;;57.37;30.23;;;;;;;;;;5037351;28;20206;-71
2023/12/20 01:05:05;;;;;;;50.47;26.20;;;;;;;;;;5055622;28;20182;-72
2023/12/20 01:07:31;;;;;;;66.83;35.17;;;;;;;;;;5055327;28;20185;-70
2023/12/20 01:09:57;;;;;;;48.40;23.70;;;;;;;;;;5055378;28;20579;-72
2023/12/20 01:12:23;;;;;;;64.00;27.57;;;;;;;;;;5055365;28;20266;-70
2023/12/20 01:14:52;;;;;;;62.57;31.87;;;;;;;;;;5055354;28;20178;-72
2023/12/20 01:17:21;;;;;;;67.80;33.40;;;;;;;;;;5055509;28;20205;-72
2023/12/20 01:19:47;;;;;;;58.80;28.07;;;;;;;;;;5055335;28;20181;-72
2023/12/20 01:22:13;;;;;;;68.27;34.87;;;;;;;;;;5055450;28;20202;-70
2023/12/20 01:24:39;;;;;;;61.97;23.93;;;;;;;;;;5055369;28;20261;-71
2023/12/20 01:27:05;;;;;;;57.90;27.77;;;;;;;;;;5036472;28;20191;-71
2023/12/20 01:29:31;;;;;;;51.93;21.83;;;;;;;;;;5054958;28;20182;-72
2023/12/20 01:31:57;;;;;;;45.87;21.63;;;;;;;;;;5055110;28;20213;-70
2023/12/20 01:34:23;;;;;;;66.60;33.03;;;;;;;;;;5055412;28;20252;-71
2023/12/20 01:36:49;;;;;;;56.03;28.13;;;;;;;;;;5055096;28;20552;-71
2023/12/20 01:39:15;;;;;;;71.57;32.17;;;;;;;;;;5055091;28;20224;-72
2023/12/20 01:41:41;;;;;;;77.50;31.20;;;;;;;;;;5054714;28;20198;-72
2023/12/20 01:44:07;;;;;;;67.00;29.60;;;;;;;;;;5054945;28;20217;-71
2023/12/20 01:46:33;;;;;;;94.00;42.00;;;;;;;;;;5055145;28;20551;-72
2023/12/20 01:48:59;;;;;;;47.40;21.93;;;;;;;;;;5054836;28;20474;-71
2023/12/20 01:51:28;;;;;;;43.93;20.50;;;;;;;;;;5054660;28;20247;-72
2023/12/20 01:53:55;;;;;;;41.70;20.10;;;;;;;;;;5055096;28;20186;-72
2023/12/20 01:56:21;;;;;;;43.90;17.27;;;;;;;;;;5054295;28;20175;-72
2023/12/20 01:58:48;;;;;;;34.03;16.07;;;;;;;;;;5040308;28;20183;-73
2023/12/20 02:01:14;;;;;;;38.53;16.13;;;;;;;;;;5059074;28;20234;-71
2023/12/20 02:03:41;;;;;;;39.37;16.77;;;;;;;;;;5059110;28;20621;-72
2023/12/20 02:06:09;;;;;;;43.30;16.53;;;;;;;;;;5058529;28;20186;-70
2023/12/20 02:08:36;;;;;;;32.80;14.97;;;;;;;;;;5058521;28;20183;-73
2023/12/20 02:11:02;;;;;;;36.67;17.50;;;;;;;;;;5058188;28;20749;-71
2023/12/20 02:13:28;;;;;;;45.57;17.80;;;;;;;;;;5058527;28;20190;-72
2023/12/20 02:15:55;;;;;;;34.97;16.60;;;;;;;;;;5040731;28;20190;-73
2023/12/20 02:18:21;;;;;;;37.20;16.97;;;;;;;;;;5058277;28;20202;-71
2023/12/20 02:20:47;;;;;;;35.90;17.13;;;;;;;;;;5058202;28;20734;-69
2023/12/20 02:23:13;;;;;;;30.00;15.33;;;;;;;;;;5057771;28;20178;-71
2023/12/20 02:25:39;;;;;;;39.97;15.30;;;;;;;;;;5057629;28;20171;-70
2023/12/20 02:28:06;;;;;;;36.57;16.23;;;;;;;;;;5058088;28;20194;-70
2023/12/20 02:30:32;;;;;;;42.77;15.83;;;;;;;;;;5057319;28;20237;-72
2023/12/20 02:33:00;;;;;;;31.73;13.73;;;;;;;;;;5058191;28;20175;-72
2023/12/20 02:35:26;;;;;;;30.47;14.57;;;;;;;;;;5057760;28;20591;-71
2023/12/20 02:37:52;;;;;;;31.53;14.07;;;;;;;;;;5057938;28;20205;-70
2023/12/20 02:40:18;;;;;;;31.10;12.80;;;;;;;;;;5057463;28;20219;-71
2023/12/20 02:42:44;;;;;;;26.03;11.87;;;;;;;;;;5057374;28;20266;-72
2023/12/20 02:45:10;;;;;;;36.63;11.73;;;;;;;;;;5058125;28;20171;-70
2023/12/20 02:47:36;;;;;;;29.57;12.43;;;;;;;;;;5057337;28;20555;-68
2023/12/20 02:50:02;;;;;;;26.23;11.47;;;;;;;;;;5058290;28;20183;-74
2023/12/20 02:52:29;;;;;;;28.10;11.37;;;;;;;;;;5039972;28;20202;-69
2023/12/20 02:54:55;;;;;;;31.70;11.53;;;;;;;;;;5057639;28;20629;-70
2023/12/20 02:57:21;;;;;;;30.80;10.00;;;;;;;;;;5057491;28;20217;-73
2023/12/20 02:59:47;;;;;;;25.57;10.57;;;;;;;;;;5039412;28;20224;-71
2023/12/20 03:02:13;;;;;;;26.23;9.70;;;;;;;;;;5057606;28;20199;-70
2023/12/20 03:04:39;;;;;;;30.90;11.20;;;;;;;;;;5057764;28;20182;-70
2023/12/20 03:07:05;;;;;;;25.43;9.13;;;;;;;;;;5040266;28;20183;-71
2023/12/20 03:09:31;;;;;;;21.77;8.33;;;;;;;;;;5055967;28;20262;-69
2023/12/20 03:11:57;;;;;;;33.73;9.27;;;;;;;;;;5056865;28;20210;-71
2023/12/20 03:14:23;;;;;;;20.40;7.70;;;;;;;;;;5056992;28;20186;-70
2023/12/20 03:16:54;;;;;;;25.20;7.17;;;;;;;;;;5040842;28;20217;-71
2023/12/20 03:19:20;;;;;;;32.60;8.40;;;;;;;;;;5058298;28;20181;-66
2023/12/20 03:21:46;;;;;;;16.27;6.73;;;;;;;;;;5057719;28;20195;-66
2023/12/20 03:24:12;;;;;;;21.13;6.57;;;;;;;;;;5057189;28;20183;-67
2023/12/20 03:26:38;;;;;;;16.40;6.23;;;;;;;;;;5057066;28;20599;-72
2023/12/20 03:29:04;;;;;;;25.60;7.13;;;;;;;;;;5056791;28;20206;-72
2023/12/20 03:31:30;;;;;;;27.00;6.40;;;;;;;;;;5039301;28;20571;-65
2023/12/20 03:33:56;;;;;;;21.33;5.80;;;;;;;;;;5039517;28;20240;-66
2023/12/20 03:36:22;;;;;;;17.50;5.07;;;;;;;;;;5056681;28;20260;-71
2023/12/20 03:38:48;;;;;;;26.80;5.70;;;;;;;;;;5056562;28;20650;-72
2023/12/20 03:41:14;;;;;;;14.27;4.57;;;;;;;;;;5038648;28;20312;-70
2023/12/20 03:43:40;;;;;;;15.43;4.57;;;;;;;;;;5056591;28;20189;-71
2023/12/20 03:46:08;;;;;;;20.53;5.07;;;;;;;;;;5038876;28;20273;-69
2023/12/20 03:48:34;;;;;;;18.50;6.30;;;;;;;;;;5056386;28;20181;-70
2023/12/20 03:51:00;;;;;;;17.80;5.60;;;;;;;;;;5056116;28;20207;-70
2023/12/20 03:53:26;;;;;;;16.43;5.13;;;;;;;;;;5038997;28;20183;-70
2023/12/20 03:55:52;;;;;;;22.03;5.37;;;;;;;;;;5038265;28;20179;-69
2023/12/20 03:58:18;;;;;;;21.00;5.10;;;;;;;;;;5038459;28;20676;-70
2023/12/20 04:00:44;;;;;;;22.23;5.33;;;;;;;;;;5055806;28;20198;-70
2023/12/20 04:03:13;;;;;;;25.30;5.83;;;;;;;;;;5038024;28;20261;-72
2023/12/20 04:05:39;;;;;;;21.53;4.77;;;;;;;;;;5055853;28;20175;-69
2023/12/20 04:08:05;;;;;;;21.20;5.10;;;;;;;;;;5055983;28;20186;-70
2023/12/20 04:10:31;;;;;;;25.13;5.07;;;;;;;;;;5056125;28;20615;-73
2023/12/20 04:12:57;;;;;;;20.67;5.30;;;;;;;;;;5056380;28;20183;-69
2023/12/20 04:15:23;;;;;;;16.53;4.90;;;;;;;;;;5056183;28;20205;-70
2023/12/20 04:17:52;;;;;;;25.43;4.87;;;;;;;;;;5037790;28;20198;-71
2023/12/20 04:20:18;;;;;;;14.40;4.70;;;;;;;;;;5055106;28;20182;-70
2023/12/20 04:22:44;;;;;;;21.27;6.03;;;;;;;;;;5055355;28;20254;-71
2023/12/20 04:25:13;;;;;;;20.10;5.83;;;;;;;;;;5037647;28;20263;-69
2023/12/20 04:27:39;;;;;;;13.63;5.20;;;;;;;;;;5055437;28;20178;-69
2023/12/20 04:30:05;;;;;;;21.77;6.30;;;;;;;;;;5037738;28;20240;-70
2023/12/20 04:32:31;;;;;;;17.37;5.23;;;;;;;;;;5055820;28;20222;-71
2023/12/20 04:34:57;;;;;;;28.67;6.07;;;;;;;;;;5055875;28;20178;-69
2023/12/20 04:37:23;;;;;;;17.10;5.00;;;;;;;;;;5055582;28;20280;-70
2023/12/20 04:39:50;;;;;;;16.13;5.10;;;;;;;;;;5037216;28;20233;-70
2023/12/20 04:42:15;;;;;;;15.63;5.60;;;;;;;;;;5055298;28;20194;-69
2023/12/20 04:44:43;;;;;;;17.13;5.57;;;;;;;;;;5055034;28;20174;-71
2023/12/20 04:47:09;;;;;;;17.23;6.07;;;;;;;;;;5037374;28;20183;-69
2023/12/20 04:49:35;;;;;;;21.17;5.93;;;;;;;;;;5055561;28;20191;-69
2023/12/20 04:52:01;;;;;;;20.37;7.03;;;;;;;;;;5055510;28;20209;-71
2023/12/20 04:54:27;;;;;;;22.70;6.23;;;;;;;;;;5037749;28;20178;-69
2023/12/20 04:56:53;;;;;;;23.33;6.77;;;;;;;;;;5055294;28;20228;-74
2023/12/20 04:59:19;;;;;;;27.77;7.03;;;;;;;;;;5055601;28;20628;-70
2023/12/20 05:01:45;;;;;;;25.60;7.17;;;;;;;;;;5037678;28;20198;-75
2023/12/20 05:04:11;;;;;;;17.27;6.90;;;;;;;;;;5037266;28;20182;-69
2023/12/20 05:06:37;;;;;;;22.63;7.80;;;;;;;;;;5037233;28;20217;-70
2023/12/20 05:09:03;;;;;;;19.93;7.80;;;;;;;;;;5055154;28;20171;-70
2023/12/20 05:11:29;;;;;;;23.80;7.27;;;;;;;;;;5037507;28;20209;-71
2023/12/20 05:13:56;;;;;;;20.77;8.13;;;;;;;;;;5054781;28;20178;-71
2023/12/20 05:16:22;;;;;;;24.97;8.17;;;;;;;;;;5036987;28;20199;-70
2023/12/20 05:18:50;;;;;;;24.90;8.33;;;;;;;;;;5037327;28;20300;-72
2023/12/20 05:21:16;;;;;;;23.60;8.60;;;;;;;;;;5037219;28;20205;-69
2023/12/20 05:23:42;;;;;;;21.60;8.73;;;;;;;;;;5055039;28;20253;-70
2023/12/20 05:26:08;;;;;;;29.10;9.90;;;;;;;;;;5055775;28;20550;-70
2023/12/20 05:28:34;;;;;;;21.37;8.30;;;;;;;;;;5055475;28;20253;-70
2023/12/20 05:31:00;;;;;;;28.07;9.03;;;;;;;;;;5038210;28;20758;-70
2023/12/20 05:33:26;;;;;;;20.80;8.83;;;;;;;;;;5059664;28;20636;-69
2023/12/20 05:35:52;;;;;;;23.63;8.23;;;;;;;;;;5058751;28;20182;-70
2023/12/20 05:38:18;;;;;;;21.87;8.20;;;;;;;;;;5058875;28;20263;-70
2023/12/20 05:40:44;;;;;;;31.10;9.00;;;;;;;;;;5058661;28;20676;-70
2023/12/20 05:43:10;;;;;;;26.20;7.93;;;;;;;;;;5058686;28;20607;-69
2023/12/20 05:45:36;;;;;;;28.80;8.43;;;;;;;;;;5059331;28;20174;-71
2023/12/20 05:48:02;;;;;;;23.27;8.43;;;;;;;;;;5040539;28;20182;-68
2023/12/20 05:50:28;;;;;;;24.67;7.77;;;;;;;;;;5059397;28;20651;-70
2023/12/20 05:52:55;;;;;;;25.83;7.80;;;;;;;;;;5058452;28;20179;-71
2023/12/20 05:55:21;;;;;;;24.07;9.03;;;;;;;;;;5058526;28;20171;-70
2023/12/20 05:57:47;;;;;;;24.93;8.77;;;;;;;;;;5040426;28;20213;-71
2023/12/20 06:00:13;;;;;;;22.77;8.43;;;;;;;;;;5040892;28;20189;-69
2023/12/20 06:02:39;;;;;;;18.67;8.13;;;;;;;;;;5059152;28;20194;-70
2023/12/20 06:05:06;;;;;;;23.83;8.10;;;;;;;;;;5058971;28;20197;-69
2023/12/20 06:07:32;;;;;;;22.30;7.73;;;;;;;;;;5058561;28;20183;-69
2023/12/20 06:09:58;;;;;;;24.83;8.13;;;;;;;;;;5058139;28;20261;-68
2023/12/20 06:12:24;;;;;;;21.50;8.70;;;;;;;;;;5057970;28;20198;-71
2023/12/20 06:14:50;;;;;;;27.47;8.17;;;;;;;;;;5057620;28;20548;-69
2023/12/20 06:17:16;;;;;;;22.90;8.07;;;;;;;;;;5040060;28;20584;-70
2023/12/20 06:19:44;;;;;;;18.13;7.43;;;;;;;;;;5040619;28;20189;-69
2023/12/20 06:22:10;;;;;;;21.90;7.77;;;;;;;;;;5058010;28;20197;-70
2023/12/20 06:24:36;;;;;;;29.60;8.17;;;;;;;;;;5040266;28;20240;-69
2023/12/20 06:27:02;;;;;;;24.33;7.23;;;;;;;;;;5040103;28;20345;-68
2023/12/20 06:29:28;;;;;;;23.47;8.00;;;;;;;;;;5040562;28;20195;-69
2023/12/20 06:31:54;;;;;;;19.40;7.57;;;;;;;;;;5059048;28;20221;-69
2023/12/20 06:34:20;;;;;;;16.67;7.47;;;;;;;;;;5058118;28;20181;-69
2023/12/20 06:36:46;;;;;;;22.57;7.40;;;;;;;;;;5041963;28;20187;-70
2023/12/20 06:39:13;;;;;;;20.00;7.20;;;;;;;;;;5059442;28;20679;-69
2023/12/20 06:41:39;;;;;;;25.20;8.57;;;;;;;;;;5057247;28;20468;-70
2023/12/20 06:44:05;;;;;;;23.52;8.38;;;;;;;;;;5037692;28;20412;-69
2023/12/20 06:46:31;;;;;;;25.50;8.45;;;;;;;;;;5057077;28;20389;-69
2023/12/20 06:48:57;;;;;;;23.50;8.18;;;;;;;;;;5056330;28;20425;-70
2023/12/20 06:51:25;;;;;;;22.15;7.72;;;;;;;;;;5056595;28;20378;-71
2023/12/20 06:53:51;;;;;;;18.70;7.72;;;;;;;;;;5056317;28;20373;-70
2023/12/20 06:56:17;;;;;;;22.13;7.65;;;;;;;;;;5038479;28;20373;-69
2023/12/20 06:58:43;;;;;;;20.27;6.97;;;;;;;;;;5056889;28;20401;-71
2023/12/20 07:01:13;;;;;;;18.85;6.93;;;;;;;;;;5056199;28;20468;-69
2023/12/20 07:03:39;;;;;;;27.83;7.90;;;;;;;;;;5056102;28;20378;-70
2023/12/20 07:06:05;;;;;;;24.90;7.57;;;;;;;;;;5056791;28;20380;-69
2023/12/20 07:08:31;;;;;;;16.10;6.15;;;;;;;;;;5056928;28;20378;-70
2023/12/20 07:10:57;;;;;;;19.98;6.82;;;;;;;;;;5059312;28;20456;-69
2023/12/20 07:13:23;;;;;;;18.90;6.65;;;;;;;;;;5064140;28;20384;-70
2023/12/20 07:15:49;;;;;;;20.60;7.38;;;;;;;;;;5064253;28;20378;-72
2023/12/20 07:18:15;;;;;;;22.50;7.35;;;;;;;;;;5063987;28;20481;-70
2023/12/20 07:20:41;;;;;;;22.83;7.15;;;;;;;;;;5063395;28;20463;-70
2023/12/20 07:23:07;;;;;;;25.60;7.70;;;;;;;;;;5064891;28;20377;-71
2023/12/20 07:25:33;;;;;;;23.50;7.32;;;;;;;;;;5046500;28;20376;-70
2023/12/20 07:27:59;;;;;;;20.70;6.83;;;;;;;;;;5060191;28;20397;-70
2023/12/20 07:30:25;;;;;;;22.10;7.40;;;;;;;;;;5055575;28;20385;-71
2023/12/20 07:32:52;;;;;;;15.95;6.70;;;;;;;;;;5055957;28;20919;-71
2023/12/20 07:35:18;;;;;;;21.95;7.63;;;;;;;;;;5037986;28;20751;-71
2023/12/20 07:37:44;;;;;;;22.73;7.03;;;;;;;;;;5055997;28;20489;-71
2023/12/20 07:40:10;;;;;;;25.27;7.00;;;;;;;;;;5037722;28;20397;-68
2023/12/20 07:42:36;;;;;;;19.98;6.95;;;;;;;;;;5055121;28;20389;-72
2023/12/20 07:45:02;;;;;;;19.35;7.05;;;;;;;;;;5037791;28;20378;-68
2023/12/20 07:47:28;;;;;;;24.70;7.35;;;;;;;;;;5037809;28;20915;-69
2023/12/20 07:49:54;;;;;;;19.63;6.90;;;;;;;;;;5037234;28;20392;-70
2023/12/20 07:52:22;;;;;;;18.13;7.20;;;;;;;;;;5055469;28;20435;-67
2023/12/20 07:54:48;;;;;;;20.55;7.35;;;;;;;;;;5055031;28;20385;-70
2023/12/20 07:57:14;;;;;;;23.13;7.38;;;;;;;;;;5054785;28;20393;-71
2023/12/20 07:59:40;;;;;;;20.45;7.10;;;;;;;;;;5037208;28;20382;-70
2023/12/20 08:02:07;;;;;;;17.88;6.63;;;;;;;;;;5055473;28;20411;-69
2023/12/20 08:04:33;;;;;;;20.15;7.15;;;;;;;;;;5054658;28;20467;-70
2023/12/20 08:07:00;;;;;;;19.50;7.25;;;;;;;;;;5054977;28;20377;-69
2023/12/20 08:09:26;;;;;;;22.63;7.50;;;;;;;;;;5055379;28;20416;-70
2023/12/20 08:11:52;;;;;;;20.50;6.90;;;;;;;;;;5054829;28;20385;-70
2023/12/20 08:14:18;;;;;;;25.67;7.60;;;;;;;;;;5055163;28;20397;-70
2023/12/20 08:16:43;;;;;;;22.77;7.90;;;;;;;;;;5036444;28;20386;-69
2023/12/20 08:19:09;;;;;;;24.35;8.30;;;;;;;;;;5037200;28;20416;-70
2023/12/20 08:21:35;;;;;;;24.33;7.85;;;;;;;;;;5054732;28;20763;-69
2023/12/20 08:24:01;;;;;;;24.35;8.20;;;;;;;;;;5055276;28;20445;-67
2023/12/20 08:26:27;;;;;;;28.73;10.07;;;;;;;;;;5055180;28;20390;-69
2023/12/20 08:28:53;;;;;;;21.13;7.18;;;;;;;;;;5057505;28;20406;-69
2023/12/20 08:31:20;;;;;;;21.42;7.45;;;;;;;;;;5044013;28;20406;-69
2023/12/20 08:33:47;;;;;;;23.77;7.65;;;;;;;;;;5036483;28;20390;-67
2023/12/20 08:36:13;;;;;;;18.27;6.93;;;;;;;;;;5054221;28;20416;-69
2023/12/20 08:38:39;;;;;;;19.42;6.40;;;;;;;;;;5056455;28;20879;-68
2023/12/20 08:41:05;;;;;;;23.40;6.65;;;;;;;;;;5055029;28;20427;-69
2023/12/20 08:43:31;;;;;;;19.73;6.97;;;;;;;;;;5054905;28;20890;-69
2023/12/20 08:45:58;;;;;;;17.75;5.63;;;;;;;;;;5054649;28;20420;-69
2023/12/20 08:48:24;;;;;;;16.42;4.95;;;;;;;;;;5054507;28;20435;-70
2023/12/20 08:50:51;;;;;;;17.48;5.32;;;;;;;;;;5054237;28;20385;-69
2023/12/20 08:53:18;;;;;;;19.73;5.78;;;;;;;;;;5054313;28;20736;-70
2023/12/20 08:55:43;;;;;;;18.38;5.53;;;;;;;;;;5036060;28;20413;-69
2023/12/20 08:58:10;;;;;;;23.23;6.25;;;;;;;;;;5053698;28;20405;-69
2023/12/20 09:00:35;;;;;;;20.17;5.68;;;;;;;;;;5054550;28;20380;-70
2023/12/20 09:03:02;;;;;;;19.05;5.55;;;;;;;;;;5036293;28;20381;-68
2023/12/20 09:05:28;;;;;;;19.95;6.00;;;;;;;;;;5054132;28;20393;-68
2023/12/20 09:07:54;;;;;;;20.33;6.15;;;;;;;;;;5053574;28;20872;-69
2023/12/20 09:10:22;;;;;;;24.70;6.22;;;;;;;;;;5053887;28;20384;-69
2023/12/20 09:12:56;;;;;;;17.77;5.67;;;;;;;;;;5036165;28;20504;-70
2023/12/20 09:15:22;;;;;;;19.20;6.07;;;;;;;;;;5036063;28;20389;-69
2023/12/20 09:17:47;;;;;;;22.20;6.43;;;;;;;;;;5055103;28;20264;-69
2023/12/20 09:20:13;;;;;;;19.13;5.30;;;;;;;;;;5037554;28;20186;-68
2023/12/20 09:22:41;;;;;;;19.65;6.15;;;;;;;;;;5054087;28;20408;-68
2023/12/20 09:25:07;;;;;;;21.67;6.32;;;;;;;;;;5053819;28;20380;-68
2023/12/20 09:27:33;;;;;;;19.17;5.88;;;;;;;;;;5036294;28;20979;-68
2023/12/20 09:30:00;;;;;;;24.45;6.35;;;;;;;;;;5054082;28;20389;-69
2023/12/20 09:32:26;;;;;;;19.17;6.78;;;;;;;;;;5035606;28;20397;-68
2023/12/20 09:34:52;;;;;;;16.10;6.47;;;;;;;;;;5053797;28;20452;-68
2023/12/20 09:37:18;;;;;;;17.77;6.00;;;;;;;;;;5053764;28;20409;-69
2023/12/20 09:39:43;;;;;;;21.70;6.50;;;;;;;;;;5053943;28;20565;-68
2023/12/20 09:42:12;;;;;;;21.63;6.40;;;;;;;;;;5054242;28;20385;-68
2023/12/20 09:44:42;;;;;;;17.27;6.17;;;;;;;;;;5053521;28;20859;-69
2023/12/20 09:47:08;;;;;;;20.63;6.30;;;;;;;;;;5053455;28;20381;-69
2023/12/20 09:49:34;;;;;;;17.83;6.35;;;;;;;;;;5037100;28;20397;-69
2023/12/20 09:52:01;;;;;;;21.77;6.30;;;;;;;;;;5036536;28;20390;-68
2023/12/20 09:54:28;;;;;;;17.88;5.95;;;;;;;;;;5054914;28;20420;-68
2023/12/20 09:56:54;;;;;;;16.42;6.03;;;;;;;;;;5054698;28;20381;-68
2023/12/20 09:59:21;;;;;;;19.80;6.50;;;;;;;;;;5054451;28;20721;-68
2023/12/20 10:01:46;;;;;;;22.65;6.47;;;;;;;;;;5035946;28;20472;-68
2023/12/20 10:04:14;;;;;;;21.47;6.30;;;;;;;;;;5054498;28;20465;-68
2023/12/20 10:06:40;;;;;;;20.55;6.35;;;;;;;;;;5053822;28;20439;-70
2023/12/20 10:09:06;;;;;;;16.65;5.53;;;;;;;;;;5035571;28;20692;-70
2023/12/20 10:11:32;;;;;;;19.85;6.07;;;;;;;;;;5053852;28;20482;-72
2023/12/20 10:14:01;;;;;;;17.75;5.88;;;;;;;;;;5052852;28;20377;-68
2023/12/20 10:16:28;;;;;;;16.92;6.03;;;;;;;;;;5036095;28;20393;-68
2023/12/20 10:18:54;;;;;;;20.27;5.77;;;;;;;;;;5037864;28;20401;-68
2023/12/20 10:21:20;;;;;;;19.45;5.90;;;;;;;;;;5057042;28;20427;-68
2023/12/20 10:23:46;;;;;;;22.25;5.82;;;;;;;;;;5058195;28;20787;-69
2023/12/20 10:26:23;;;;;;;19.23;6.03;;;;;;;;;;5039120;28;20847;-68
2023/12/20 10:28:55;;;;;;;18.70;5.90;;;;;;;;;;5039070;28;20417;-68
2023/12/20 10:31:31;;;;;;;16.45;5.80;;;;;;;;;;5056675;28;20475;-69
2023/12/20 10:34:00;;;;;;;15.02;5.18;;;;;;;;;;5056740;28;20913;-69
2023/12/20 10:36:29;;;;;;;18.73;5.93;;;;;;;;;;5056843;28;20836;-72
2023/12/20 10:38:57;;;;;;;16.60;5.50;;;;;;;;;;5038708;28;20442;-69
2023/12/20 10:41:30;;;;;;;18.77;6.03;;;;;;;;;;5056964;28;20381;-68
2023/12/20 10:43:58;;;;;;;15.93;5.75;;;;;;;;;;5056680;28;20796;-69
2023/12/20 10:46:26;;;;;;;18.30;5.97;;;;;;;;;;5056939;28;20382;-70
2023/12/20 10:48:52;;;;;;;15.85;5.45;;;;;;;;;;5038313;28;20392;-69
2023/12/20 10:51:19;;;;;;;20.35;6.30;;;;;;;;;;5056064;28;20382;-69
2023/12/20 10:53:48;;;;;;;17.90;5.93;;;;;;;;;;5056348;28;20377;-69
2023/12/20 10:56:16;;;;;;;18.88;6.10;;;;;;;;;;5056371;28;20455;-70
2023/12/20 10:58:43;;;;;;;14.05;5.47;;;;;;;;;;5056491;28;20646;-68
2023/12/20 11:01:09;;;;;;;19.40;5.83;;;;;;;;;;5056053;28;20431;-70
2023/12/20 11:03:39;;;;;;;20.65;6.32;;;;;;;;;;5056437;28;20794;-69
2023/12/20 11:06:11;;;;;;;21.85;6.10;;;;;;;;;;5056658;28;20778;-69
2023/12/20 11:08:44;;;;;;;19.58;6.18;;;;;;;;;;5056327;28;20381;-69
2023/12/20 11:11:14;;;;;;;15.68;5.85;;;;;;;;;;5038620;28;20921;-68
2023/12/20 11:14:00;;;;;;;19.77;6.40;;;;;;;;;;5056637;28;20382;-70
2023/12/20 11:16:26;;;;;;;19.55;5.80;;;;;;;;;;5056311;28;20381;-69
2023/12/20 11:18:52;;;;;;;16.15;6.60;;;;;;;;;;5055388;28;20405;-68
2023/12/20 11:21:18;;;;;;;20.58;6.50;;;;;;;;;;5055816;28;20378;-68
2023/12/20 11:23:44;;;;;;;16.52;5.53;;;;;;;;;;5055612;28;20473;-68
2023/12/20 11:26:10;;;;;;;16.02;5.82;;;;;;;;;;5055885;28;20381;-68
2023/12/20 11:28:36;;;;;;;15.57;5.03;;;;;;;;;;5056920;28;20253;-70
2023/12/20 11:31:02;;;;;;;16.73;5.50;;;;;;;;;;5038252;28;20634;-68
2023/12/20 11:33:32;;;;;;;15.53;4.60;;;;;;;;;;5038379;28;20272;-71
2023/12/20 11:35:59;;;;;;;17.60;5.47;;;;;;;;;;5039059;28;20179;-69
2023/12/20 11:38:25;;;;;;;19.13;5.07;;;;;;;;;;5038791;28;20198;-70
2023/12/20 11:40:51;;;;;;;15.35;5.43;;;;;;;;;;5055283;28;20717;-69
2023/12/20 11:43:46;;;;;;;17.80;6.73;;;;;;;;;;5037102;28;20829;-68
2023/12/20 11:46:12;;;;;;;17.45;6.15;;;;;;;;;;5038733;28;20416;-66
2023/12/20 11:48:44;;;;;;;16.67;5.85;;;;;;;;;;5055193;28;20377;-69
2023/12/20 11:51:11;;;;;;;19.95;6.57;;;;;;;;;;5037001;28;20381;-68
2023/12/20 11:53:37;;;;;;;21.40;6.45;;;;;;;;;;5054774;28;20887;-71
2023/12/20 11:56:03;;;;;;;18.38;6.57;;;;;;;;;;5054628;28;20779;-69
2023/12/20 11:58:30;;;;;;;17.90;6.75;;;;;;;;;;5036509;28;20412;-69
2023/12/20 12:00:56;;;;;;;19.23;7.10;;;;;;;;;;5054346;28;20934;-68
2023/12/20 12:03:23;;;;;;;22.73;7.28;;;;;;;;;;5036765;28;20385;-67
2023/12/20 12:05:49;;;;;;;21.17;6.80;;;;;;;;;;5054555;28;20381;-70
2023/12/20 12:08:15;;;;;;;16.83;6.47;;;;;;;;;;5036244;28;20385;-68
2023/12/20 12:10:42;;;;;;;17.07;6.43;;;;;;;;;;5054882;28;20378;-68
2023/12/20 12:13:08;;;;;;;19.25;6.72;;;;;;;;;;5036880;28;20843;-68
2023/12/20 12:15:34;;;;;;;22.97;6.57;;;;;;;;;;5037786;28;20390;-67
2023/12/20 12:18:00;;;;;;;18.90;5.85;;;;;;;;;;5036417;28;20401;-70
2023/12/20 12:20:26;;;;;;;18.30;6.53;;;;;;;;;;5036583;28;20690;-68
2023/12/20 12:23:01;;;;;;;18.23;6.13;;;;;;;;;;5054669;28;20378;-69
2023/12/20 12:25:29;;;;;;;20.98;6.50;;;;;;;;;;5037530;28;20812;-69
2023/12/20 12:27:55;;;;;;;15.20;5.80;;;;;;;;;;5055439;28;20385;-70
2023/12/20 12:30:22;;;;;;;18.83;6.22;;;;;;;;;;5056466;28;20456;-70
2023/12/20 12:32:48;;;;;;;15.30;5.70;;;;;;;;;;5056067;28;20434;-69
2023/12/20 12:35:14;;;;;;;20.08;6.22;;;;;;;;;;5056345;28;20411;-67
2023/12/20 12:37:41;;;;;;;19.23;5.20;;;;;;;;;;5057792;28;20444;-71
2023/12/20 12:40:10;;;;;;;15.77;5.40;;;;;;;;;;5054754;28;20444;-68
2023/12/20 12:42:37;;;;;;;16.63;6.00;;;;;;;;;;5035907;28;20849;-70
2023/12/20 12:45:03;;;;;;;17.63;5.90;;;;;;;;;;5037034;28;20464;-71
2023/12/20 12:47:29;;;;;;;19.50;6.03;;;;;;;;;;5054679;28;20381;-70
2023/12/20 12:49:55;;;;;;;14.75;5.85;;;;;;;;;;5055594;28;20382;-68
2023/12/20 12:52:21;;;;;;;17.95;6.00;;;;;;;;;;5053993;28;20381;-69
2023/12/20 12:54:47;;;;;;;17.47;6.00;;;;;;;;;;5053889;28;20378;-68
2023/12/20 12:57:14;;;;;;;18.77;6.72;;;;;;;;;;5053599;28;20412;-69
2023/12/20 12:59:41;;;;;;;18.83;6.87;;;;;;;;;;5054151;28;20405;-69
2023/12/20 13:02:07;;;;;;;15.93;6.50;;;;;;;;;;5037914;28;20461;-71
2023/12/20 13:04:33;;;;;;;19.60;6.68;;;;;;;;;;5036920;28;20381;-68
2023/12/20 13:06:59;;;;;;;15.93;5.93;;;;;;;;;;5036467;28;20393;-69
2023/12/20 13:09:25;;;;;;;21.92;6.90;;;;;;;;;;5054606;28;20382;-69
2023/12/20 13:11:51;;;;;;;16.30;6.97;;;;;;;;;;5036153;28;20377;-67
2023/12/20 13:14:17;;;;;;;16.67;7.07;;;;;;;;;;5053851;28;20772;-70
2023/12/20 13:16:44;;;;;;;19.10;8.23;;;;;;;;;;5036383;28;20390;-70
2023/12/20 13:19:10;;;;;;;21.48;9.18;;;;;;;;;;5053793;28;20438;-70
2023/12/20 13:21:36;;;;;;;21.27;9.07;;;;;;;;;;5054190;28;20452;-70
2023/12/20 13:24:03;;;;;;;19.33;9.40;;;;;;;;;;5053810;28;20886;-69
2023/12/20 13:26:29;;;;;;;22.52;9.00;;;;;;;;;;5053661;28;20377;-71
2023/12/20 13:28:55;;;;;;;23.23;9.48;;;;;;;;;;5035815;28;20585;-69
2023/12/20 13:31:21;;;;;;;18.48;9.30;;;;;;;;;;5053009;28;20469;-70
2023/12/20 13:33:47;;;;;;;17.08;8.27;;;;;;;;;;5054307;28;20394;-70
2023/12/20 13:36:13;;;;;;;22.95;9.50;;;;;;;;;;5053781;28;20385;-70
2023/12/20 13:38:39;;;;;;;24.80;9.93;;;;;;;;;;5035450;28;20405;-70
2023/12/20 13:41:05;;;;;;;18.77;9.20;;;;;;;;;;5035547;28;20417;-71
2023/12/20 13:43:32;;;;;;;20.40;9.52;;;;;;;;;;5053336;28;20388;-70
2023/12/20 13:45:58;;;;;;;22.77;9.75;;;;;;;;;;5036034;28;20914;-70
2023/12/20 13:48:24;;;;;;;18.02;9.50;;;;;;;;;;5053202;28;20385;-70
2023/12/20 13:50:50;;;;;;;19.67;9.40;;;;;;;;;;5035316;28;20840;-70
2023/12/20 13:53:16;;;;;;;26.30;9.93;;;;;;;;;;5037163;28;20377;-68
2023/12/20 13:55:42;;;;;;;22.77;9.85;;;;;;;;;;5057489;28;20476;-69
2023/12/20 13:58:10;;;;;;;20.23;9.68;;;;;;;;;;5040273;28;20445;-69
2023/12/20 14:00:36;;;;;;;23.80;10.82;;;;;;;;;;5040118;28;20409;-69
2023/12/20 14:03:02;;;;;;;18.50;10.15;;;;;;;;;;5058074;28;20756;-70
2023/12/20 14:05:28;;;;;;;25.25;11.02;;;;;;;;;;5058020;28;20386;-70
2023/12/20 14:07:57;;;;;;;19.77;10.68;;;;;;;;;;5039728;28;20377;-70
2023/12/20 14:10:23;;;;;;;21.95;10.23;;;;;;;;;;5040228;28;20393;-71
2023/12/20 14:12:49;;;;;;;30.17;11.10;;;;;;;;;;5057536;28;20405;-70
2023/12/20 14:15:15;;;;;;;25.25;10.98;;;;;;;;;;5039493;28;20392;-70
2023/12/20 14:17:44;;;;;;;23.13;10.95;;;;;;;;;;5038934;28;20405;-68
2023/12/20 14:20:12;;;;;;;26.60;11.57;;;;;;;;;;5056936;28;20495;-69
2023/12/20 14:22:38;;;;;;;26.53;11.60;;;;;;;;;;5057729;28;20437;-69